sensor_id;sensor_type;location;lat;lon;timestamp;P1;durP1;ratioP1;P2;durP2;ratioP2
72791;SDS011;60907;53.268;8.764;2022-10-31T00:00:13;25.77;;;13.02;;
72791;SDS011;60907;53.268;8.764;2022-10-31T00:02:39;28.88;;;14.32;;
72791;SDS011;60907;53.268;8.764;2022-10-31T00:05:04;28.58;;;14.43;;
72791;SDS011;60907;53.268;8.764;2022-10-31T00:07:30;28.25;;;14.93;;
72791;SDS011;60907;53.268;8.764;2022-10-31T00:09:55;29.17;;;15.55;;
72791;SDS011;60907;53.268;8.764;2022-10-31T00:12:20;29.87;;;14.30;;
72791;SDS011;60907;53.268;8.764;2022-10-31T00:14:46;27.17;;;14.23;;
72791;SDS011;60907;53.268;8.764;2022-10-31T00:17:11;34.08;;;16.02;;
72791;SDS011;60907;53.268;8.764;2022-10-31T00:19:37;29.80;;;14.65;;
72791;SDS011;60907;53.268;8.764;2022-10-31T00:22:02;29.37;;;14.67;;
72791;SDS011;60907;53.268;8.764;2022-10-31T00:24:27;27.90;;;14.40;;
72791;SDS011;60907;53.268;8.764;2022-10-31T00:26:53;28.83;;;14.47;;
72791;SDS011;60907;53.268;8.764;2022-10-31T00:29:18;30.57;;;15.33;;
72791;SDS011;60907;53.268;8.764;2022-10-31T00:31:43;28.90;;;15.03;;
72791;SDS011;60907;53.268;8.764;2022-10-31T00:34:09;28.45;;;14.43;;
72791;SDS011;60907;53.268;8.764;2022-10-31T00:36:34;30.63;;;14.35;;
72791;SDS011;60907;53.268;8.764;2022-10-31T00:39:00;28.20;;;14.95;;
72791;SDS011;60907;53.268;8.764;2022-10-31T00:41:26;30.60;;;15.70;;
72791;SDS011;60907;53.268;8.764;2022-10-31T00:43:51;28.58;;;14.43;;
72791;SDS011;60907;53.268;8.764;2022-10-31T00:46:17;35.17;;;16.23;;
72791;SDS011;60907;53.268;8.764;2022-10-31T00:48:42;25.53;;;13.97;;
72791;SDS011;60907;53.268;8.764;2022-10-31T00:51:08;30.23;;;14.15;;
72791;SDS011;60907;53.268;8.764;2022-10-31T00:53:33;24.90;;;14.75;;
72791;SDS011;60907;53.268;8.764;2022-10-31T00:55:59;30.50;;;16.08;;
72791;SDS011;60907;53.268;8.764;2022-10-31T00:58:24;27.35;;;14.38;;
72791;SDS011;60907;53.268;8.764;2022-10-31T01:00:50;30.37;;;14.43;;
72791;SDS011;60907;53.268;8.764;2022-10-31T01:03:25;34.88;;;16.95;;
72791;SDS011;60907;53.268;8.764;2022-10-31T01:05:59;30.85;;;16.30;;
72791;SDS011;60907;53.268;8.764;2022-10-31T01:08:25;34.22;;;16.13;;
72791;SDS011;60907;53.268;8.764;2022-10-31T01:10:58;32.30;;;15.23;;
72791;SDS011;60907;53.268;8.764;2022-10-31T01:13:43;31.60;;;16.50;;
72791;SDS011;60907;53.268;8.764;2022-10-31T01:16:13;33.55;;;15.38;;
72791;SDS011;60907;53.268;8.764;2022-10-31T01:18:40;31.08;;;16.08;;
72791;SDS011;60907;53.268;8.764;2022-10-31T01:23:32;31.33;;;15.45;;
72791;SDS011;60907;53.268;8.764;2022-10-31T01:26:02;30.95;;;16.40;;
72791;SDS011;60907;53.268;8.764;2022-10-31T01:28:42;32.65;;;15.52;;
72791;SDS011;60907;53.268;8.764;2022-10-31T01:31:12;34.35;;;15.70;;
72791;SDS011;60907;53.268;8.764;2022-10-31T01:33:38;33.47;;;16.60;;
72791;SDS011;60907;53.268;8.764;2022-10-31T01:38:48;29.83;;;16.30;;
72791;SDS011;60907;53.268;8.764;2022-10-31T01:41:15;33.10;;;15.25;;
72791;SDS011;60907;53.268;8.764;2022-10-31T01:48:42;33.75;;;14.50;;
72791;SDS011;60907;53.268;8.764;2022-10-31T01:51:07;31.50;;;14.27;;
72791;SDS011;60907;53.268;8.764;2022-10-31T01:53:33;30.83;;;13.93;;
72791;SDS011;60907;53.268;8.764;2022-10-31T01:55:59;28.75;;;14.55;;
72791;SDS011;60907;53.268;8.764;2022-10-31T01:58:25;28.25;;;14.50;;
72791;SDS011;60907;53.268;8.764;2022-10-31T02:00:53;34.45;;;14.23;;
72791;SDS011;60907;53.268;8.764;2022-10-31T02:03:21;27.90;;;14.00;;
72791;SDS011;60907;53.268;8.764;2022-10-31T02:05:47;31.42;;;14.73;;
72791;SDS011;60907;53.268;8.764;2022-10-31T02:08:14;38.30;;;15.63;;
72791;SDS011;60907;53.268;8.764;2022-10-31T02:10:43;30.10;;;13.57;;
72791;SDS011;60907;53.268;8.764;2022-10-31T02:13:09;31.85;;;15.30;;
72791;SDS011;60907;53.268;8.764;2022-10-31T02:15:36;31.38;;;14.80;;
72791;SDS011;60907;53.268;8.764;2022-10-31T02:18:03;24.98;;;14.07;;
72791;SDS011;60907;53.268;8.764;2022-10-31T02:20:31;29.08;;;14.60;;
72791;SDS011;60907;53.268;8.764;2022-10-31T02:28:33;35.60;;;14.55;;
72791;SDS011;60907;53.268;8.764;2022-10-31T02:37:06;27.98;;;13.73;;
72791;SDS011;60907;53.268;8.764;2022-10-31T02:39:53;28.67;;;13.88;;
72791;SDS011;60907;53.268;8.764;2022-10-31T02:45:00;30.48;;;15.07;;
72791;SDS011;60907;53.268;8.764;2022-10-31T02:47:32;31.40;;;14.38;;
72791;SDS011;60907;53.268;8.764;2022-10-31T02:50:05;31.23;;;13.82;;
72791;SDS011;60907;53.268;8.764;2022-10-31T02:52:39;31.92;;;13.82;;
72791;SDS011;60907;53.268;8.764;2022-10-31T02:55:09;29.58;;;13.50;;
72791;SDS011;60907;53.268;8.764;2022-10-31T02:57:36;27.65;;;13.73;;
72791;SDS011;60907;53.268;8.764;2022-10-31T03:00:04;30.50;;;13.13;;
72791;SDS011;60907;53.268;8.764;2022-10-31T03:13:35;24.70;;;11.32;;
72791;SDS011;60907;53.268;8.764;2022-10-31T03:16:07;26.17;;;12.05;;
72791;SDS011;60907;53.268;8.764;2022-10-31T03:18:53;23.88;;;11.88;;
72791;SDS011;60907;53.268;8.764;2022-10-31T03:21:24;23.20;;;12.35;;
72791;SDS011;60907;53.268;8.764;2022-10-31T03:23:51;24.75;;;11.80;;
72791;SDS011;60907;53.268;8.764;2022-10-31T03:28:46;22.30;;;10.85;;
72791;SDS011;60907;53.268;8.764;2022-10-31T03:31:17;40.88;;;10.68;;
72791;SDS011;60907;53.268;8.764;2022-10-31T03:33:43;19.90;;;10.13;;
72791;SDS011;60907;53.268;8.764;2022-10-31T03:36:10;76.28;;;12.05;;
72791;SDS011;60907;53.268;8.764;2022-10-31T03:38:37;44.08;;;12.27;;
72791;SDS011;60907;53.268;8.764;2022-10-31T03:41:03;30.83;;;12.30;;
72791;SDS011;60907;53.268;8.764;2022-10-31T03:43:32;31.25;;;15.48;;
72791;SDS011;60907;53.268;8.764;2022-10-31T03:45:58;32.60;;;13.05;;
72791;SDS011;60907;53.268;8.764;2022-10-31T03:48:24;28.58;;;13.23;;
72791;SDS011;60907;53.268;8.764;2022-10-31T03:53:31;27.77;;;11.73;;
72791;SDS011;60907;53.268;8.764;2022-10-31T03:56:03;18.65;;;10.95;;
72791;SDS011;60907;53.268;8.764;2022-10-31T03:58:36;39.28;;;11.75;;
72791;SDS011;60907;53.268;8.764;2022-10-31T04:01:04;24.42;;;12.52;;
72791;SDS011;60907;53.268;8.764;2022-10-31T04:03:32;18.27;;;11.10;;
72791;SDS011;60907;53.268;8.764;2022-10-31T04:08:26;21.73;;;11.85;;
72791;SDS011;60907;53.268;8.764;2022-10-31T04:10:54;22.13;;;10.25;;
72791;SDS011;60907;53.268;8.764;2022-10-31T04:13:24;23.88;;;11.82;;
72791;SDS011;60907;53.268;8.764;2022-10-31T04:15:52;24.30;;;11.95;;
72791;SDS011;60907;53.268;8.764;2022-10-31T04:18:19;25.60;;;13.38;;
72791;SDS011;60907;53.268;8.764;2022-10-31T04:20:44;28.15;;;14.50;;
72791;SDS011;60907;53.268;8.764;2022-10-31T04:25:45;29.65;;;15.63;;
72791;SDS011;60907;53.268;8.764;2022-10-31T04:28:11;45.30;;;15.63;;
72791;SDS011;60907;53.268;8.764;2022-10-31T04:30:36;61.58;;;14.82;;
72791;SDS011;60907;53.268;8.764;2022-10-31T04:33:02;28.05;;;14.07;;
72791;SDS011;60907;53.268;8.764;2022-10-31T04:35:27;41.38;;;16.15;;
72791;SDS011;60907;53.268;8.764;2022-10-31T04:37:53;43.88;;;14.68;;
72791;SDS011;60907;53.268;8.764;2022-10-31T04:40:18;28.65;;;14.38;;
72791;SDS011;60907;53.268;8.764;2022-10-31T04:42:43;42.90;;;15.30;;
72791;SDS011;60907;53.268;8.764;2022-10-31T04:45:09;47.45;;;14.80;;
72791;SDS011;60907;53.268;8.764;2022-10-31T04:47:34;38.17;;;15.70;;
72791;SDS011;60907;53.268;8.764;2022-10-31T04:50:00;38.97;;;15.93;;
72791;SDS011;60907;53.268;8.764;2022-10-31T04:52:26;36.88;;;15.02;;
72791;SDS011;60907;53.268;8.764;2022-10-31T04:54:52;42.85;;;16.23;;
72791;SDS011;60907;53.268;8.764;2022-10-31T04:57:17;48.25;;;17.00;;
72791;SDS011;60907;53.268;8.764;2022-10-31T04:59:42;38.75;;;17.40;;
72791;SDS011;60907;53.268;8.764;2022-10-31T05:02:08;59.15;;;17.77;;
72791;SDS011;60907;53.268;8.764;2022-10-31T05:04:33;63.00;;;17.70;;
72791;SDS011;60907;53.268;8.764;2022-10-31T05:06:59;53.47;;;18.17;;
72791;SDS011;60907;53.268;8.764;2022-10-31T05:09:24;56.70;;;19.20;;
72791;SDS011;60907;53.268;8.764;2022-10-31T05:11:49;64.03;;;19.88;;
72791;SDS011;60907;53.268;8.764;2022-10-31T05:14:15;83.57;;;20.90;;
72791;SDS011;60907;53.268;8.764;2022-10-31T05:16:40;65.18;;;20.40;;
72791;SDS011;60907;53.268;8.764;2022-10-31T05:19:06;75.47;;;20.13;;
72791;SDS011;60907;53.268;8.764;2022-10-31T05:21:31;74.28;;;21.17;;
72791;SDS011;60907;53.268;8.764;2022-10-31T05:23:57;102.35;;;22.40;;
72791;SDS011;60907;53.268;8.764;2022-10-31T05:26:22;68.95;;;20.45;;
72791;SDS011;60907;53.268;8.764;2022-10-31T05:28:48;82.50;;;21.38;;
72791;SDS011;60907;53.268;8.764;2022-10-31T05:31:13;85.80;;;21.25;;
72791;SDS011;60907;53.268;8.764;2022-10-31T05:33:39;94.03;;;20.67;;
72791;SDS011;60907;53.268;8.764;2022-10-31T05:36:04;73.55;;;20.52;;
72791;SDS011;60907;53.268;8.764;2022-10-31T05:38:30;95.45;;;21.13;;
72791;SDS011;60907;53.268;8.764;2022-10-31T05:40:55;101.18;;;22.25;;
72791;SDS011;60907;53.268;8.764;2022-10-31T05:43:26;70.93;;;20.98;;
72791;SDS011;60907;53.268;8.764;2022-10-31T05:45:53;106.82;;;20.88;;
72791;SDS011;60907;53.268;8.764;2022-10-31T05:48:19;44.65;;;19.50;;
72791;SDS011;60907;53.268;8.764;2022-10-31T05:50:44;59.10;;;19.05;;
72791;SDS011;60907;53.268;8.764;2022-10-31T05:53:10;59.85;;;19.65;;
72791;SDS011;60907;53.268;8.764;2022-10-31T05:55:35;93.65;;;22.10;;
72791;SDS011;60907;53.268;8.764;2022-10-31T05:58:01;69.32;;;19.20;;
72791;SDS011;60907;53.268;8.764;2022-10-31T06:00:26;83.03;;;20.67;;
72791;SDS011;60907;53.268;8.764;2022-10-31T06:02:59;84.75;;;19.90;;
72791;SDS011;60907;53.268;8.764;2022-10-31T06:05:25;74.90;;;20.35;;
72791;SDS011;60907;53.268;8.764;2022-10-31T06:07:51;64.20;;;19.00;;
72791;SDS011;60907;53.268;8.764;2022-10-31T06:10:16;69.18;;;19.67;;
72791;SDS011;60907;53.268;8.764;2022-10-31T06:12:41;86.25;;;20.25;;
72791;SDS011;60907;53.268;8.764;2022-10-31T06:15:07;64.22;;;18.85;;
72791;SDS011;60907;53.268;8.764;2022-10-31T06:17:34;62.92;;;18.83;;
72791;SDS011;60907;53.268;8.764;2022-10-31T06:20:00;58.38;;;18.58;;
72791;SDS011;60907;53.268;8.764;2022-10-31T06:22:26;62.95;;;18.73;;
72791;SDS011;60907;53.268;8.764;2022-10-31T06:24:51;60.60;;;18.55;;
72791;SDS011;60907;53.268;8.764;2022-10-31T06:27:17;51.28;;;18.35;;
72791;SDS011;60907;53.268;8.764;2022-10-31T06:29:42;49.80;;;17.17;;
72791;SDS011;60907;53.268;8.764;2022-10-31T06:32:11;53.30;;;16.52;;
72791;SDS011;60907;53.268;8.764;2022-10-31T06:34:37;37.95;;;16.45;;
72791;SDS011;60907;53.268;8.764;2022-10-31T06:37:03;43.80;;;15.80;;
72791;SDS011;60907;53.268;8.764;2022-10-31T06:39:30;50.30;;;15.63;;
72791;SDS011;60907;53.268;8.764;2022-10-31T06:41:55;45.67;;;16.38;;
72791;SDS011;60907;53.268;8.764;2022-10-31T06:44:21;45.38;;;15.00;;
72791;SDS011;60907;53.268;8.764;2022-10-31T06:46:47;40.17;;;14.82;;
72791;SDS011;60907;53.268;8.764;2022-10-31T06:49:12;38.67;;;14.32;;
72791;SDS011;60907;53.268;8.764;2022-10-31T06:51:38;28.60;;;14.40;;
72791;SDS011;60907;53.268;8.764;2022-10-31T06:54:03;40.45;;;15.88;;
72791;SDS011;60907;53.268;8.764;2022-10-31T06:56:29;34.92;;;14.30;;
72791;SDS011;60907;53.268;8.764;2022-10-31T06:58:54;33.35;;;14.45;;
72791;SDS011;60907;53.268;8.764;2022-10-31T07:01:20;32.08;;;12.57;;
72791;SDS011;60907;53.268;8.764;2022-10-31T07:03:45;28.23;;;12.73;;
72791;SDS011;60907;53.268;8.764;2022-10-31T07:06:11;30.95;;;13.10;;
72791;SDS011;60907;53.268;8.764;2022-10-31T07:08:36;28.58;;;12.77;;
72791;SDS011;60907;53.268;8.764;2022-10-31T07:11:01;27.10;;;13.75;;
72791;SDS011;60907;53.268;8.764;2022-10-31T07:13:27;23.35;;;13.55;;
72791;SDS011;60907;53.268;8.764;2022-10-31T07:15:53;23.65;;;12.90;;
72791;SDS011;60907;53.268;8.764;2022-10-31T07:18:20;22.10;;;12.88;;
72791;SDS011;60907;53.268;8.764;2022-10-31T07:20:46;22.98;;;11.85;;
72791;SDS011;60907;53.268;8.764;2022-10-31T07:23:12;34.35;;;11.50;;
72791;SDS011;60907;53.268;8.764;2022-10-31T07:25:38;43.20;;;12.02;;
72791;SDS011;60907;53.268;8.764;2022-10-31T07:28:04;28.67;;;12.35;;
72791;SDS011;60907;53.268;8.764;2022-10-31T07:30:29;23.75;;;12.27;;
72791;SDS011;60907;53.268;8.764;2022-10-31T07:32:55;18.10;;;10.20;;
72791;SDS011;60907;53.268;8.764;2022-10-31T07:35:21;21.65;;;11.75;;
72791;SDS011;60907;53.268;8.764;2022-10-31T07:40:13;20.60;;;11.30;;
72791;SDS011;60907;53.268;8.764;2022-10-31T07:42:40;20.58;;;11.00;;
72791;SDS011;60907;53.268;8.764;2022-10-31T07:45:08;20.17;;;11.05;;
72791;SDS011;60907;53.268;8.764;2022-10-31T07:47:39;19.73;;;10.25;;
72791;SDS011;60907;53.268;8.764;2022-10-31T07:50:05;16.77;;;10.52;;
72791;SDS011;60907;53.268;8.764;2022-10-31T07:52:31;20.27;;;11.93;;
72791;SDS011;60907;53.268;8.764;2022-10-31T07:54:57;18.80;;;11.48;;
72791;SDS011;60907;53.268;8.764;2022-10-31T07:57:22;18.63;;;11.65;;
72791;SDS011;60907;53.268;8.764;2022-10-31T07:59:48;18.98;;;11.15;;
72791;SDS011;60907;53.268;8.764;2022-10-31T08:02:13;17.33;;;11.35;;
72791;SDS011;60907;53.268;8.764;2022-10-31T08:04:38;20.83;;;10.95;;
72791;SDS011;60907;53.268;8.764;2022-10-31T08:07:04;29.40;;;16.80;;
72791;SDS011;60907;53.268;8.764;2022-10-31T08:09:29;31.33;;;18.48;;
72791;SDS011;60907;53.268;8.764;2022-10-31T08:11:55;27.27;;;18.58;;
72791;SDS011;60907;53.268;8.764;2022-10-31T08:14:20;28.60;;;19.73;;
72791;SDS011;60907;53.268;8.764;2022-10-31T08:16:46;30.25;;;17.67;;
72791;SDS011;60907;53.268;8.764;2022-10-31T08:19:11;22.05;;;13.63;;
72791;SDS011;60907;53.268;8.764;2022-10-31T08:21:37;20.63;;;11.88;;
72791;SDS011;60907;53.268;8.764;2022-10-31T08:24:02;20.65;;;11.30;;
72791;SDS011;60907;53.268;8.764;2022-10-31T08:26:28;20.77;;;10.25;;
72791;SDS011;60907;53.268;8.764;2022-10-31T08:28:53;22.27;;;11.23;;
72791;SDS011;60907;53.268;8.764;2022-10-31T08:31:20;27.27;;;11.07;;
72791;SDS011;60907;53.268;8.764;2022-10-31T08:33:46;20.02;;;11.57;;
72791;SDS011;60907;53.268;8.764;2022-10-31T08:36:11;31.48;;;12.60;;
72791;SDS011;60907;53.268;8.764;2022-10-31T08:38:37;24.98;;;11.73;;
72791;SDS011;60907;53.268;8.764;2022-10-31T08:41:02;21.00;;;11.70;;
72791;SDS011;60907;53.268;8.764;2022-10-31T08:43:27;34.83;;;12.00;;
72791;SDS011;60907;53.268;8.764;2022-10-31T08:45:53;25.35;;;12.52;;
72791;SDS011;60907;53.268;8.764;2022-10-31T08:48:20;31.60;;;12.52;;
72791;SDS011;60907;53.268;8.764;2022-10-31T08:50:46;31.60;;;13.55;;
72791;SDS011;60907;53.268;8.764;2022-10-31T08:53:12;27.50;;;13.85;;
72791;SDS011;60907;53.268;8.764;2022-10-31T08:55:40;27.88;;;13.50;;
72791;SDS011;60907;53.268;8.764;2022-10-31T08:58:06;24.75;;;13.48;;
72791;SDS011;60907;53.268;8.764;2022-10-31T09:00:34;22.67;;;13.10;;
72791;SDS011;60907;53.268;8.764;2022-10-31T09:03:03;24.88;;;14.13;;
72791;SDS011;60907;53.268;8.764;2022-10-31T09:05:29;25.33;;;13.50;;
72791;SDS011;60907;53.268;8.764;2022-10-31T09:07:58;29.77;;;15.02;;
72791;SDS011;60907;53.268;8.764;2022-10-31T09:10:25;29.63;;;16.85;;
72791;SDS011;60907;53.268;8.764;2022-10-31T09:12:58;26.20;;;14.23;;
72791;SDS011;60907;53.268;8.764;2022-10-31T09:15:25;27.15;;;13.82;;
72791;SDS011;60907;53.268;8.764;2022-10-31T09:17:51;29.90;;;14.65;;
72791;SDS011;60907;53.268;8.764;2022-10-31T09:20:16;25.80;;;13.70;;
72791;SDS011;60907;53.268;8.764;2022-10-31T09:22:42;23.90;;;13.85;;
72791;SDS011;60907;53.268;8.764;2022-10-31T09:25:07;27.65;;;16.25;;
72791;SDS011;60907;53.268;8.764;2022-10-31T09:27:33;24.50;;;13.82;;
72791;SDS011;60907;53.268;8.764;2022-10-31T09:29:58;25.90;;;13.88;;
72791;SDS011;60907;53.268;8.764;2022-10-31T09:32:24;24.65;;;13.25;;
72791;SDS011;60907;53.268;8.764;2022-10-31T09:34:49;25.08;;;14.52;;
72791;SDS011;60907;53.268;8.764;2022-10-31T09:37:15;28.65;;;14.80;;
72791;SDS011;60907;53.268;8.764;2022-10-31T09:39:40;26.73;;;14.70;;
72791;SDS011;60907;53.268;8.764;2022-10-31T09:44:46;30.87;;;15.50;;
72791;SDS011;60907;53.268;8.764;2022-10-31T09:50:21;35.00;;;16.85;;
72791;SDS011;60907;53.268;8.764;2022-10-31T09:52:58;33.28;;;16.20;;
72791;SDS011;60907;53.268;8.764;2022-10-31T09:55:39;37.72;;;18.05;;
72791;SDS011;60907;53.268;8.764;2022-10-31T09:58:08;36.55;;;18.38;;
72791;SDS011;60907;53.268;8.764;2022-10-31T10:00:40;46.25;;;17.50;;
72791;SDS011;60907;53.268;8.764;2022-10-31T10:08:19;33.38;;;17.20;;
72791;SDS011;60907;53.268;8.764;2022-10-31T10:16:16;37.35;;;17.17;;
72791;SDS011;60907;53.268;8.764;2022-10-31T10:21:28;33.80;;;15.40;;
72791;SDS011;60907;53.268;8.764;2022-10-31T10:24:14;41.08;;;16.90;;
72791;SDS011;60907;53.268;8.764;2022-10-31T10:26:43;31.75;;;16.90;;
72791;SDS011;60907;53.268;8.764;2022-10-31T10:29:27;36.00;;;17.48;;
72791;SDS011;60907;53.268;8.764;2022-10-31T10:32:20;30.40;;;16.70;;
72791;SDS011;60907;53.268;8.764;2022-10-31T10:34:51;32.45;;;16.77;;
72791;SDS011;60907;53.268;8.764;2022-10-31T10:37:40;28.42;;;15.00;;
72791;SDS011;60907;53.268;8.764;2022-10-31T10:40:11;30.17;;;15.95;;
72791;SDS011;60907;53.268;8.764;2022-10-31T10:42:41;34.40;;;16.58;;
72791;SDS011;60907;53.268;8.764;2022-10-31T10:45:40;34.17;;;16.77;;
72791;SDS011;60907;53.268;8.764;2022-10-31T10:51:03;37.75;;;16.77;;
72791;SDS011;60907;53.268;8.764;2022-10-31T10:59:01;35.20;;;15.63;;
72791;SDS011;60907;53.268;8.764;2022-10-31T11:01:26;44.17;;;18.25;;
72791;SDS011;60907;53.268;8.764;2022-10-31T11:03:52;37.08;;;16.38;;
72791;SDS011;60907;53.268;8.764;2022-10-31T11:06:26;36.78;;;17.23;;
72791;SDS011;60907;53.268;8.764;2022-10-31T11:08:52;42.20;;;18.67;;
72791;SDS011;60907;53.268;8.764;2022-10-31T11:14:05;33.85;;;18.02;;
72791;SDS011;60907;53.268;8.764;2022-10-31T11:16:38;36.20;;;16.23;;
72791;SDS011;60907;53.268;8.764;2022-10-31T11:21:42;41.25;;;17.38;;
72791;SDS011;60907;53.268;8.764;2022-10-31T11:26:38;37.40;;;17.48;;
72791;SDS011;60907;53.268;8.764;2022-10-31T11:29:05;45.28;;;18.00;;
72791;SDS011;60907;53.268;8.764;2022-10-31T11:31:37;44.70;;;18.38;;
72791;SDS011;60907;53.268;8.764;2022-10-31T11:34:04;42.30;;;17.38;;
72791;SDS011;60907;53.268;8.764;2022-10-31T11:36:42;44.03;;;18.52;;
72791;SDS011;60907;53.268;8.764;2022-10-31T11:39:21;39.00;;;16.98;;
72791;SDS011;60907;53.268;8.764;2022-10-31T11:41:48;36.67;;;16.73;;
72791;SDS011;60907;53.268;8.764;2022-10-31T11:44:33;39.40;;;16.45;;
72791;SDS011;60907;53.268;8.764;2022-10-31T11:47:03;36.55;;;15.80;;
72791;SDS011;60907;53.268;8.764;2022-10-31T11:52:12;32.35;;;15.80;;
72791;SDS011;60907;53.268;8.764;2022-10-31T11:54:42;35.63;;;17.15;;
72791;SDS011;60907;53.268;8.764;2022-10-31T11:57:21;31.02;;;16.52;;
72791;SDS011;60907;53.268;8.764;2022-10-31T12:00:01;34.63;;;15.85;;
72791;SDS011;60907;53.268;8.764;2022-10-31T12:02:28;42.55;;;18.17;;
72791;SDS011;60907;53.268;8.764;2022-10-31T12:05:08;37.85;;;16.98;;
72791;SDS011;60907;53.268;8.764;2022-10-31T12:07:36;46.58;;;19.02;;
72791;SDS011;60907;53.268;8.764;2022-10-31T12:10:04;45.85;;;20.10;;
72791;SDS011;60907;53.268;8.764;2022-10-31T12:12:53;47.58;;;20.00;;
72791;SDS011;60907;53.268;8.764;2022-10-31T12:15:32;44.10;;;20.40;;
72791;SDS011;60907;53.268;8.764;2022-10-31T12:18:05;51.35;;;22.30;;
72791;SDS011;60907;53.268;8.764;2022-10-31T12:20:43;55.83;;;23.38;;
72791;SDS011;60907;53.268;8.764;2022-10-31T12:41:36;48.40;;;20.65;;
72791;SDS011;60907;53.268;8.764;2022-10-31T12:49:34;55.10;;;24.17;;
72791;SDS011;60907;53.268;8.764;2022-10-31T12:52:30;53.20;;;24.17;;
72791;SDS011;60907;53.268;8.764;2022-10-31T12:57:35;54.83;;;23.67;;
72791;SDS011;60907;53.268;8.764;2022-10-31T13:00:04;63.33;;;24.70;;
72791;SDS011;60907;53.268;8.764;2022-10-31T13:05:44;53.47;;;23.08;;
72791;SDS011;60907;53.268;8.764;2022-10-31T13:08:26;48.97;;;22.13;;
72791;SDS011;60907;53.268;8.764;2022-10-31T13:11:15;49.70;;;21.63;;
72791;SDS011;60907;53.268;8.764;2022-10-31T13:16:40;47.30;;;22.10;;
72791;SDS011;60907;53.268;8.764;2022-10-31T13:19:14;48.28;;;22.67;;
72791;SDS011;60907;53.268;8.764;2022-10-31T13:21:51;45.13;;;20.30;;
72791;SDS011;60907;53.268;8.764;2022-10-31T13:24:36;39.10;;;18.83;;
72791;SDS011;60907;53.268;8.764;2022-10-31T13:27:03;42.53;;;19.05;;
72791;SDS011;60907;53.268;8.764;2022-10-31T13:29:38;42.45;;;19.02;;
72791;SDS011;60907;53.268;8.764;2022-10-31T13:32:08;35.72;;;17.00;;
72791;SDS011;60907;53.268;8.764;2022-10-31T13:34:36;33.40;;;16.42;;
72791;SDS011;60907;53.268;8.764;2022-10-31T13:43:24;37.65;;;16.20;;
72791;SDS011;60907;53.268;8.764;2022-10-31T13:45:54;35.65;;;16.88;;
72791;SDS011;60907;53.268;8.764;2022-10-31T13:51:00;37.10;;;16.30;;
72791;SDS011;60907;53.268;8.764;2022-10-31T13:53:44;38.75;;;17.55;;
72791;SDS011;60907;53.268;8.764;2022-10-31T13:58:58;33.70;;;15.95;;
72791;SDS011;60907;53.268;8.764;2022-10-31T14:02:31;34.28;;;16.30;;
72791;SDS011;60907;53.268;8.764;2022-10-31T14:04:47;33.70;;;15.07;;
72791;SDS011;60907;53.268;8.764;2022-10-31T14:07:15;38.35;;;16.73;;
72791;SDS011;60907;53.268;8.764;2022-10-31T14:17:31;36.70;;;16.08;;
72791;SDS011;60907;53.268;8.764;2022-10-31T14:20:21;37.70;;;17.77;;
72791;SDS011;60907;53.268;8.764;2022-10-31T14:29:20;37.50;;;15.52;;
72791;SDS011;60907;53.268;8.764;2022-10-31T14:31:52;33.60;;;15.65;;
72791;SDS011;60907;53.268;8.764;2022-10-31T14:47:34;33.13;;;15.07;;
72791;SDS011;60907;53.268;8.764;2022-10-31T14:50:29;42.38;;;16.90;;
72791;SDS011;60907;53.268;8.764;2022-10-31T14:52:52;37.60;;;16.08;;
72791;SDS011;60907;53.268;8.764;2022-10-31T14:55:20;35.35;;;15.70;;
72791;SDS011;60907;53.268;8.764;2022-10-31T14:57:59;32.67;;;15.13;;
72791;SDS011;60907;53.268;8.764;2022-10-31T15:00:28;35.95;;;15.20;;
72791;SDS011;60907;53.268;8.764;2022-10-31T15:03:16;36.28;;;16.10;;
72791;SDS011;60907;53.268;8.764;2022-10-31T15:05:42;39.72;;;16.10;;
72791;SDS011;60907;53.268;8.764;2022-10-31T15:08:26;34.58;;;13.73;;
72791;SDS011;60907;53.268;8.764;2022-10-31T15:10:54;36.92;;;14.88;;
72791;SDS011;60907;53.268;8.764;2022-10-31T15:13:20;34.17;;;14.07;;
72791;SDS011;60907;53.268;8.764;2022-10-31T15:18:16;38.03;;;15.05;;
72791;SDS011;60907;53.268;8.764;2022-10-31T15:20:43;41.35;;;16.13;;
72791;SDS011;60907;53.268;8.764;2022-10-31T15:23:10;35.25;;;14.98;;
72791;SDS011;60907;53.268;8.764;2022-10-31T15:25:39;40.25;;;15.70;;
72791;SDS011;60907;53.268;8.764;2022-10-31T15:28:12;39.10;;;14.93;;
72791;SDS011;60907;53.268;8.764;2022-10-31T15:30:59;37.95;;;14.60;;
72791;SDS011;60907;53.268;8.764;2022-10-31T15:33:29;36.88;;;15.40;;
72791;SDS011;60907;53.268;8.764;2022-10-31T15:36:04;38.55;;;14.27;;
72791;SDS011;60907;53.268;8.764;2022-10-31T15:38:30;40.65;;;15.63;;
72791;SDS011;60907;53.268;8.764;2022-10-31T15:41:00;40.45;;;14.55;;
72791;SDS011;60907;53.268;8.764;2022-10-31T15:43:27;34.55;;;14.00;;
72791;SDS011;60907;53.268;8.764;2022-10-31T15:45:58;37.97;;;14.25;;
72791;SDS011;60907;53.268;8.764;2022-10-31T15:48:24;37.15;;;14.63;;
72791;SDS011;60907;53.268;8.764;2022-10-31T15:50:54;36.35;;;14.10;;
72791;SDS011;60907;53.268;8.764;2022-10-31T15:53:24;43.50;;;14.70;;
72791;SDS011;60907;53.268;8.764;2022-10-31T15:55:55;43.28;;;15.25;;
72791;SDS011;60907;53.268;8.764;2022-10-31T15:58:26;37.65;;;13.95;;
72791;SDS011;60907;53.268;8.764;2022-10-31T16:00:57;40.58;;;14.70;;
72791;SDS011;60907;53.268;8.764;2022-10-31T16:03:29;38.85;;;15.32;;
72791;SDS011;60907;53.268;8.764;2022-10-31T16:06:03;37.20;;;13.60;;
72791;SDS011;60907;53.268;8.764;2022-10-31T16:11:16;41.23;;;14.40;;
72791;SDS011;60907;53.268;8.764;2022-10-31T16:16:18;37.47;;;13.27;;
72791;SDS011;60907;53.268;8.764;2022-10-31T16:18:45;37.83;;;14.50;;
72791;SDS011;60907;53.268;8.764;2022-10-31T16:21:11;38.55;;;14.35;;
72791;SDS011;60907;53.268;8.764;2022-10-31T16:23:38;41.35;;;14.75;;
72791;SDS011;60907;53.268;8.764;2022-10-31T16:26:08;39.67;;;14.73;;
72791;SDS011;60907;53.268;8.764;2022-10-31T16:28:34;36.63;;;13.15;;
72791;SDS011;60907;53.268;8.764;2022-10-31T16:31:00;34.85;;;13.85;;
72791;SDS011;60907;53.268;8.764;2022-10-31T16:35:51;35.43;;;12.83;;
72791;SDS011;60907;53.268;8.764;2022-10-31T16:38:17;36.22;;;13.80;;
72791;SDS011;60907;53.268;8.764;2022-10-31T16:40:43;32.95;;;13.18;;
72791;SDS011;60907;53.268;8.764;2022-10-31T16:43:10;35.65;;;13.40;;
72791;SDS011;60907;53.268;8.764;2022-10-31T16:45:38;36.40;;;14.00;;
72791;SDS011;60907;53.268;8.764;2022-10-31T16:48:12;35.28;;;13.65;;
72791;SDS011;60907;53.268;8.764;2022-10-31T16:50:42;39.67;;;13.80;;
72791;SDS011;60907;53.268;8.764;2022-10-31T16:53:10;31.90;;;12.63;;
72791;SDS011;60907;53.268;8.764;2022-10-31T16:55:43;34.95;;;12.85;;
72791;SDS011;60907;53.268;8.764;2022-10-31T16:58:18;37.05;;;13.38;;
72791;SDS011;60907;53.268;8.764;2022-10-31T17:00:46;38.92;;;12.40;;
72791;SDS011;60907;53.268;8.764;2022-10-31T17:03:12;32.28;;;12.40;;
72791;SDS011;60907;53.268;8.764;2022-10-31T17:05:38;37.58;;;12.07;;
72791;SDS011;60907;53.268;8.764;2022-10-31T17:08:03;31.30;;;11.70;;
72791;SDS011;60907;53.268;8.764;2022-10-31T17:10:29;36.33;;;12.43;;
72791;SDS011;60907;53.268;8.764;2022-10-31T17:12:54;36.45;;;12.77;;
72791;SDS011;60907;53.268;8.764;2022-10-31T17:15:25;31.98;;;12.27;;
72791;SDS011;60907;53.268;8.764;2022-10-31T17:17:52;33.53;;;11.52;;